createdAt,value
2023-05-01T00:00:13.879Z,75.22
2023-05-01T00:01:14.253Z,75.43
2023-05-01T00:02:14.518Z,75.63
2023-05-01T00:03:14.817Z,75.74
2023-05-01T00:04:15.193Z,75.74
2023-05-01T00:05:15.292Z,75.63
2023-05-01T00:06:15.693Z,75.53
2023-05-01T00:07:15.867Z,75.43
2023-05-01T00:08:16.228Z,75.43
2023-05-01T00:09:16.538Z,75.32
2023-05-01T00:10:16.843Z,75.22
2023-05-01T00:11:17.239Z,75.26
2023-05-01T00:12:17.395Z,75.26
2023-05-01T00:13:17.735Z,75.26
2023-05-01T00:14:18.061Z,75.36
2023-05-01T00:15:18.410Z,75.26
2023-05-01T00:16:18.802Z,75.15
2023-05-01T00:17:18.979Z,74.95
2023-05-01T00:18:19.292Z,74.74
2023-05-01T00:19:19.655Z,74.63
2023-05-01T00:20:19.919Z,74.53
2023-05-01T00:21:20.310Z,74.63
2023-05-01T00:22:20.520Z,74.63
2023-05-01T00:23:20.826Z,74.63
2023-05-01T00:24:21.120Z,74.63
2023-05-01T00:25:21.441Z,74.63
2023-05-01T00:26:21.798Z,74.53
2023-05-01T00:27:22.023Z,74.63
2023-05-01T00:28:22.207Z,74.53
2023-05-01T00:29:22.566Z,74.43
2023-05-01T00:30:22.777Z,74.46
2023-05-01T00:31:23.207Z,74.57
2023-05-01T00:32:23.431Z,74.67
2023-05-01T00:33:23.631Z,74.67
2023-05-01T00:34:23.979Z,74.77
2023-05-01T00:35:24.172Z,74.67
2023-05-01T00:36:24.560Z,74.67
2023-05-01T00:37:24.744Z,74.77
2023-05-01T00:38:25.040Z,74.88
2023-05-01T00:39:25.382Z,74.77
2023-05-01T00:40:25.676Z,74.77
2023-05-01T00:41:26.087Z,74.88
2023-05-01T00:42:26.281Z,74.88
2023-05-01T00:43:26.620Z,74.98
2023-05-01T00:44:26.830Z,74.88
2023-05-01T00:45:27.135Z,74.88
2023-05-01T00:46:27.636Z,74.88
2023-05-01T00:47:27.883Z,74.77
2023-05-01T00:48:28.065Z,74.88
2023-05-01T00:49:28.377Z,74.77
2023-05-01T00:50:28.703Z,74.67
2023-05-01T00:51:29.108Z,74.67
2023-05-01T00:52:29.274Z,74.67
2023-05-01T00:53:29.615Z,74.67
2023-05-01T00:54:29.800Z,74.26
2023-05-01T00:55:30.151Z,74.05
2023-05-01T00:56:30.488Z,73.85
2023-05-01T00:57:30.689Z,73.85
2023-05-01T00:58:31.016Z,73.88
2023-05-01T00:59:31.330Z,73.88
2023-05-01T01:00:31.693Z,73.88
2023-05-01T01:01:31.967Z,73.88
2023-05-01T01:02:32.171Z,73.77
2023-05-01T01:03:32.502Z,73.57
2023-05-01T01:04:32.713Z,73.36
2023-05-01T01:05:33.080Z,73.36
2023-05-01T01:06:33.374Z,73.50
2023-05-01T01:07:33.601Z,73.50
2023-05-01T01:08:33.814Z,73.60
2023-05-01T01:09:34.010Z,73.39
2023-05-01T01:10:34.365Z,73.39
2023-05-01T01:11:34.587Z,73.39
2023-05-01T01:12:34.911Z,73.29
2023-05-01T01:13:35.253Z,73.29
2023-05-01T01:14:35.567Z,73.39
2023-05-01T01:15:35.886Z,73.60
2023-05-01T01:16:36.238Z,73.71
2023-05-01T01:17:36.562Z,73.71
2023-05-01T01:18:36.883Z,73.60
2023-05-01T01:19:37.092Z,73.60
2023-05-01T01:20:37.443Z,73.60
2023-05-01T01:21:37.732Z,73.60
2023-05-01T01:22:38.041Z,73.50
2023-05-01T01:23:38.379Z,73.60
2023-05-01T01:24:38.722Z,73.60
2023-05-01T01:25:38.955Z,73.81
2023-05-01T01:26:39.168Z,73.91
2023-05-01T01:27:39.470Z,73.91
2023-05-01T01:28:39.786Z,73.81
2023-05-01T01:29:40.116Z,73.91
2023-05-01T01:30:40.486Z,73.81
2023-05-01T01:31:40.779Z,73.91
2023-05-01T01:32:41.122Z,74.12
2023-05-01T01:33:41.394Z,74.33
2023-05-01T01:34:41.703Z,74.53
2023-05-01T01:35:42.053Z,74.63
2023-05-01T01:36:42.230Z,74.74
2023-05-01T01:37:42.571Z,74.95
2023-05-01T01:38:42.903Z,74.84
2023-05-01T01:39:43.234Z,74.84
2023-05-01T01:40:43.533Z,74.77
2023-05-01T01:41:43.863Z,74.98
2023-05-01T01:42:44.155Z,75.09
2023-05-01T01:43:44.471Z,75.19
2023-05-01T01:44:44.782Z,75.29
2023-05-01T01:45:45.205Z,75.29
2023-05-01T01:46:45.437Z,75.29
2023-05-01T01:47:45.792Z,75.40
2023-05-01T01:48:45.938Z,75.40
2023-05-01T01:49:46.273Z,75.29
2023-05-01T01:50:46.662Z,75.19
2023-05-01T01:51:46.840Z,75.32
2023-05-01T01:52:47.173Z,75.32
2023-05-01T01:53:47.471Z,75.43
2023-05-01T01:54:47.778Z,75.53
2023-05-01T01:55:48.118Z,75.63
2023-05-01T01:56:48.414Z,75.74
2023-05-01T01:57:48.733Z,75.84
2023-05-01T01:58:49.068Z,75.84
2023-05-01T01:59:49.433Z,75.95
2023-05-01T02:00:49.766Z,76.15
2023-05-01T02:01:50.023Z,76.46
2023-05-01T02:02:50.267Z,76.57
2023-05-01T02:03:50.608Z,76.67
2023-05-01T02:04:50.804Z,76.67
2023-05-01T02:05:51.131Z,76.78
2023-05-01T02:06:51.483Z,76.67
2023-05-01T02:07:51.826Z,76.36
2023-05-01T02:08:52.059Z,76.05
2023-05-01T02:09:52.278Z,75.84
2023-05-01T02:10:52.517Z,75.43
2023-05-01T02:11:52.828Z,75.43
2023-05-01T02:12:53.169Z,75.43
2023-05-01T02:13:53.508Z,75.63
2023-05-01T02:14:53.894Z,75.88
2023-05-01T02:15:54.160Z,75.98
2023-05-01T02:16:54.320Z,76.09
2023-05-01T02:17:54.707Z,76.29
2023-05-01T02:18:54.856Z,76.40
2023-05-01T02:19:55.587Z,76.40
2023-05-01T02:20:55.410Z,76.61
2023-05-01T02:21:55.723Z,76.71
2023-05-01T02:22:56.085Z,76.71
2023-05-01T02:23:56.272Z,76.81
2023-05-01T02:24:56.586Z,76.81
2023-05-01T02:25:56.952Z,76.81
2023-05-01T02:26:57.154Z,76.91
2023-05-01T02:27:57.530Z,76.91
2023-05-01T02:28:57.825Z,76.91
2023-05-01T02:29:58.308Z,76.91
2023-05-01T02:30:58.364Z,76.91
2023-05-01T02:31:58.927Z,77.01
2023-05-01T02:32:59.059Z,77.01
2023-05-01T02:33:59.351Z,77.01
2023-05-01T02:34:59.686Z,77.12
2023-05-01T02:36:00.028Z,77.15
2023-05-01T02:37:00.273Z,77.12
2023-05-01T02:38:00.469Z,77.01
2023-05-01T02:39:00.792Z,76.91
2023-05-01T02:40:01.180Z,76.81
2023-05-01T02:41:01.360Z,76.81
2023-05-01T02:42:01.667Z,77.01
2023-05-01T02:43:01.971Z,77.12
2023-05-01T02:44:02.331Z,77.22
2023-05-01T02:45:02.686Z,77.33
2023-05-01T02:46:02.941Z,77.47
2023-05-01T02:47:03.186Z,77.57
2023-05-01T02:48:03.399Z,77.47
2023-05-01T02:49:03.588Z,77.47
2023-05-01T02:50:03.947Z,77.47
2023-05-01T02:51:04.166Z,77.47
2023-05-01T02:52:04.478Z,77.47
2023-05-01T02:53:04.824Z,77.36
2023-05-01T02:54:05.128Z,77.47
2023-05-01T02:55:05.463Z,77.36
2023-05-01T02:56:05.782Z,77.36
2023-05-01T02:57:06.131Z,77.36
2023-05-01T02:58:06.329Z,77.47
2023-05-01T02:59:06.691Z,77.47
2023-05-01T03:00:06.894Z,77.47
2023-05-01T03:01:07.254Z,77.47
2023-05-01T03:02:07.440Z,77.47
2023-05-01T03:03:07.824Z,77.57
2023-05-01T03:04:08.161Z,77.57
2023-05-01T03:05:08.333Z,77.67
2023-05-01T03:06:08.665Z,77.57
2023-05-01T03:07:09.078Z,77.67
2023-05-01T03:08:09.275Z,77.57
2023-05-01T03:09:09.589Z,77.67
2023-05-01T03:10:09.961Z,77.57
2023-05-01T03:11:10.149Z,77.47
2023-05-01T03:12:10.466Z,77.36
2023-05-01T03:13:10.811Z,77.26
2023-05-01T03:14:11.149Z,77.26
2023-05-01T03:15:11.400Z,77.26
2023-05-01T03:16:11.676Z,77.26
2023-05-01T03:17:11.877Z,77.26
2023-05-01T03:18:12.283Z,77.36
2023-05-01T03:19:12.427Z,77.36
2023-05-01T03:20:12.780Z,77.36
2023-05-01T03:21:13.167Z,77.36
2023-05-01T03:22:13.374Z,77.47
2023-05-01T03:23:13.697Z,77.57
2023-05-01T03:24:14.036Z,77.57
2023-05-01T03:26:36.604Z,77.71
2023-05-01T03:27:36.819Z,77.67
2023-05-01T03:28:37.184Z,77.71
2023-05-01T03:29:37.510Z,77.67
2023-05-01T03:30:37.760Z,77.57
2023-05-01T03:31:38.156Z,77.57
2023-05-01T03:32:38.360Z,77.67
2023-05-01T03:33:38.577Z,77.67
2023-05-01T03:34:38.868Z,77.36
2023-05-01T03:35:39.241Z,77.26
2023-05-01T03:36:39.729Z,77.15
2023-05-01T03:37:39.851Z,76.95
2023-05-01T03:38:40.153Z,76.95
2023-05-01T03:39:40.462Z,76.95
2023-05-01T03:40:40.754Z,76.95
2023-05-01T03:41:40.920Z,76.84
2023-05-01T03:42:41.274Z,76.74
2023-05-01T03:43:41.498Z,76.74
2023-05-01T03:44:41.715Z,76.64
2023-05-01T03:45:44.737Z,76.74
2023-05-01T03:46:42.430Z,76.74
2023-05-01T03:47:42.830Z,76.74
2023-05-01T03:48:43.000Z,76.74
2023-05-01T03:49:43.244Z,76.74
2023-05-01T03:50:43.554Z,76.74
2023-05-01T03:51:43.786Z,76.64
2023-05-01T03:52:44.021Z,76.53
2023-05-01T03:53:44.254Z,76.43
2023-05-01T03:54:44.773Z,76.23
2023-05-01T03:55:44.813Z,76.12
2023-05-01T03:56:45.033Z,76.02
2023-05-01T03:57:45.272Z,75.98
2023-05-01T03:58:45.500Z,75.98
2023-05-01T03:59:45.906Z,76.09
2023-05-01T04:00:45.990Z,76.09
2023-05-01T04:01:46.269Z,76.09
2023-05-01T04:02:46.694Z,76.09
2023-05-01T04:03:46.993Z,75.98
2023-05-01T04:04:47.229Z,76.09
2023-05-01T04:05:47.450Z,76.19
2023-05-01T04:06:47.738Z,76.29
2023-05-01T04:07:47.911Z,76.19
2023-05-01T04:08:48.165Z,75.98
2023-05-01T04:09:48.597Z,75.74
2023-05-01T04:10:48.735Z,75.74
2023-05-01T04:11:49.003Z,75.78
2023-05-01T04:12:49.238Z,75.88
2023-05-01T04:13:49.451Z,75.98
2023-05-01T04:14:49.897Z,76.19
2023-05-01T04:15:49.987Z,76.40
2023-05-01T04:16:50.163Z,76.50
2023-05-01T04:17:50.466Z,76.61
2023-05-01T04:18:50.709Z,76.61
2023-05-01T04:19:50.972Z,76.61
2023-05-01T04:20:51.284Z,76.67
2023-05-01T04:21:51.587Z,76.67
2023-05-01T04:22:51.875Z,76.88
2023-05-01T04:23:52.113Z,76.88
2023-05-01T04:24:52.532Z,76.78
2023-05-01T04:25:52.709Z,76.78
2023-05-01T04:26:53.043Z,76.78
2023-05-01T04:27:53.271Z,76.78
2023-05-01T04:28:53.510Z,76.78
2023-05-01T04:29:54.207Z,76.74
2023-05-01T04:30:54.070Z,76.74
2023-05-01T04:31:54.341Z,76.74
2023-05-01T04:32:54.603Z,76.74
2023-05-01T04:33:54.790Z,76.53
2023-05-01T04:34:55.055Z,76.43
2023-05-01T04:35:55.371Z,76.39
2023-05-01T04:36:55.608Z,76.50
2023-05-01T04:37:55.877Z,76.60
2023-05-01T04:38:56.203Z,76.60
2023-05-01T04:39:56.863Z,76.50
2023-05-01T04:40:56.826Z,75.78
2023-05-01T04:41:57.079Z,74.74
2023-05-01T04:42:57.407Z,73.91
2023-05-01T04:43:57.658Z,73.88
2023-05-01T04:44:57.993Z,73.47
2023-05-01T04:45:58.253Z,73.05
2023-05-01T04:46:58.468Z,72.85
2023-05-01T04:47:58.764Z,72.74
2023-05-01T04:48:58.940Z,71.98
2023-05-01T04:49:59.256Z,71.67
2023-05-01T04:50:59.602Z,71.16
2023-05-01T04:51:59.919Z,71.06
2023-05-01T04:53:00.148Z,71.16
2023-05-01T04:54:00.399Z,71.12
2023-05-01T04:55:00.655Z,71.02
2023-05-01T04:56:00.976Z,70.72
2023-05-01T04:57:01.217Z,70.47
2023-05-01T04:58:01.477Z,69.85
2023-05-01T04:59:01.808Z,69.65
2023-05-01T05:00:02.149Z,69.34
2023-05-01T05:01:02.406Z,68.72
2023-05-01T05:02:02.803Z,68.48
2023-05-01T05:03:03.086Z,68.79
2023-05-01T05:04:03.390Z,68.96
2023-05-01T05:05:03.609Z,68.11
2023-05-01T05:06:03.979Z,66.74
2023-05-01T05:07:04.277Z,65.55
2023-05-01T05:08:04.486Z,64.87
2023-05-01T05:09:04.739Z,63.06
2023-05-01T05:10:05.000Z,61.87
2023-05-01T05:11:05.242Z,61.02
2023-05-01T05:12:05.472Z,60.72
2023-05-01T05:13:05.719Z,60.07
2023-05-01T05:14:05.982Z,59.25
2023-05-01T05:15:06.266Z,58.95
2023-05-01T05:16:06.611Z,58.40
2023-05-01T05:17:06.897Z,58.17
2023-05-01T05:18:07.221Z,57.30
2023-05-01T05:19:07.440Z,55.82
2023-05-01T05:20:07.744Z,55.38
2023-05-01T05:21:08.009Z,54.23
2023-05-01T05:22:08.283Z,53.70
2023-05-01T05:23:08.758Z,53.49
2023-05-01T05:24:08.760Z,53.90
2023-05-01T05:25:09.005Z,53.80
2023-05-01T05:26:09.303Z,53.70
2023-05-01T05:27:09.485Z,53.77
2023-05-01T05:28:09.775Z,53.27
2023-05-01T05:29:10.003Z,53.03
2023-05-01T05:30:10.286Z,53.03
2023-05-01T05:31:10.547Z,53.31
2023-05-01T05:32:10.819Z,52.40
2023-05-01T05:33:11.026Z,51.97
2023-05-01T05:34:11.272Z,51.74
2023-05-01T05:35:11.551Z,51.92
2023-05-01T05:36:11.796Z,51.51
2023-05-01T05:37:12.049Z,50.67
2023-05-01T05:38:12.273Z,50.67
2023-05-01T05:39:12.647Z,50.78
2023-05-01T05:40:12.777Z,50.55
2023-05-01T05:41:13.021Z,50.22
2023-05-01T05:42:13.428Z,49.51
2023-05-01T05:43:13.725Z,50.22
2023-05-01T05:44:13.926Z,49.30
2023-05-01T05:45:14.060Z,49.40
2023-05-01T05:46:14.543Z,49.81
2023-05-01T05:47:14.573Z,49.61
2023-05-01T05:48:14.888Z,49.40
2023-05-01T05:49:15.154Z,49.28
2023-05-01T05:50:15.382Z,49.46
2023-05-01T05:51:15.644Z,48.32
2023-05-01T05:52:15.853Z,48.22
2023-05-01T05:53:16.091Z,47.59
2023-05-01T05:54:16.359Z,47.85
2023-05-01T05:55:16.598Z,46.83
2023-05-01T05:56:16.834Z,47.02
2023-05-01T05:57:17.048Z,47.30
2023-05-01T05:58:17.324Z,45.87
2023-05-01T05:59:17.693Z,46.38
2023-05-01T06:00:17.874Z,45.67
2023-05-01T06:01:18.107Z,45.78
2023-05-01T06:02:18.396Z,46.46
2023-05-01T06:03:18.735Z,45.15
2023-05-01T06:04:19.133Z,45.25
2023-05-01T06:05:19.277Z,44.64
2023-05-01T06:06:19.515Z,44.64
2023-05-01T06:07:19.800Z,44.64
2023-05-01T06:08:20.004Z,44.44
2023-05-01T06:09:20.251Z,44.64
2023-05-01T06:10:20.506Z,44.52
2023-05-01T06:11:20.757Z,44.20
2023-05-01T06:12:20.967Z,44.32
2023-05-01T06:13:21.373Z,44.60
2023-05-01T06:14:21.644Z,44.40
2023-05-01T06:15:21.858Z,44.09
2023-05-01T06:16:22.176Z,44.09
2023-05-01T06:17:22.465Z,44.60
2023-05-01T06:18:22.759Z,44.90
2023-05-01T06:19:23.032Z,44.88
2023-05-01T06:20:23.283Z,43.26
2023-05-01T06:21:23.545Z,43.67
2023-05-01T06:22:23.798Z,44.07
2023-05-01T06:23:24.048Z,44.78
2023-05-01T06:24:24.315Z,44.60
2023-05-01T06:25:24.597Z,44.72
2023-05-01T06:26:24.834Z,44.95
2023-05-01T06:27:25.205Z,46.26
2023-05-01T06:28:25.420Z,45.75
2023-05-01T06:29:25.664Z,45.33
2023-05-01T06:30:25.919Z,45.43
2023-05-01T06:31:26.293Z,45.03
2023-05-01T06:32:26.501Z,44.32
2023-05-01T06:33:26.721Z,44.95
2023-05-01T06:34:27.000Z,45.57
2023-05-01T06:35:27.240Z,46.18
2023-05-01T06:36:27.497Z,46.30
2023-05-01T06:37:27.749Z,47.14
2023-05-01T06:38:27.985Z,47.26
2023-05-01T06:39:28.245Z,47.51
2023-05-01T06:40:28.532Z,47.86
2023-05-01T06:41:28.800Z,49.20
2023-05-01T06:42:29.001Z,50.37
2023-05-01T06:43:29.381Z,50.90
2023-05-01T06:44:31.503Z,51.43
2023-05-01T06:45:29.921Z,52.27
2023-05-01T06:46:30.179Z,53.22
2023-05-01T06:47:31.179Z,53.52
2023-05-01T06:48:30.694Z,53.96
2023-05-01T06:49:31.066Z,54.69
2023-05-01T06:50:31.338Z,54.28
2023-05-01T06:51:31.586Z,54.72
2023-05-01T06:52:31.852Z,54.61
2023-05-01T06:53:32.104Z,54.21
2023-05-01T06:54:32.829Z,54.74
2023-05-01T06:55:33.780Z,54.85
2023-05-01T06:56:32.944Z,54.95
2023-05-01T06:57:33.184Z,54.95
2023-05-01T06:58:33.467Z,54.77
2023-05-01T06:59:33.795Z,55.18
2023-05-01T07:00:34.041Z,54.77
2023-05-01T07:01:35.606Z,54.87
2023-05-01T07:02:34.712Z,54.69
2023-05-01T07:03:35.042Z,55.00
2023-05-01T07:04:35.335Z,55.41
2023-05-01T07:05:35.585Z,54.90
2023-05-01T07:06:35.834Z,55.51
2023-05-01T07:07:37.468Z,55.92
2023-05-01T07:08:36.388Z,55.82
2023-05-01T07:09:36.681Z,55.21
2023-05-01T07:10:37.285Z,54.90
2023-05-01T07:11:37.237Z,54.18
2023-05-01T07:12:37.471Z,54.80
2023-05-01T07:13:37.709Z,55.10
2023-05-01T07:14:38.060Z,54.28
2023-05-01T07:15:38.272Z,54.80
2023-05-01T07:16:38.577Z,54.08
2023-05-01T07:17:38.889Z,54.18
2023-05-01T07:18:39.152Z,54.90
2023-05-01T07:19:39.361Z,55.21
2023-05-01T07:20:39.694Z,55.51
2023-05-01T07:21:40.049Z,55.00
2023-05-01T07:22:40.391Z,55.62
2023-05-01T07:23:40.625Z,55.99
2023-05-01T07:24:40.897Z,56.10
2023-05-01T07:25:41.256Z,55.99
2023-05-01T07:26:41.482Z,55.69
2023-05-01T07:27:41.725Z,56.20
2023-05-01T07:28:41.989Z,56.20
2023-05-01T07:29:42.242Z,55.89
2023-05-01T07:30:42.476Z,56.30
2023-05-01T07:31:42.695Z,56.20
2023-05-01T07:32:42.990Z,55.58
2023-05-01T07:33:43.179Z,55.66
2023-05-01T07:34:43.447Z,56.17
2023-05-01T07:35:43.656Z,55.97
2023-05-01T07:36:43.912Z,55.87
2023-05-01T07:37:44.241Z,56.17
2023-05-01T07:38:44.487Z,55.87
2023-05-01T07:39:44.926Z,54.74
2023-05-01T07:40:45.125Z,54.74
2023-05-01T07:41:45.357Z,54.44
2023-05-01T07:42:45.637Z,54.64
2023-05-01T07:43:45.969Z,55.26
2023-05-01T07:44:46.328Z,54.85
2023-05-01T07:45:46.610Z,54.74
2023-05-01T07:46:46.765Z,54.54
2023-05-01T07:47:47.032Z,54.23
2023-05-01T07:48:47.288Z,54.61
2023-05-01T07:49:47.612Z,53.92
2023-05-01T07:50:47.951Z,53.42
2023-05-01T07:51:48.301Z,53.62
2023-05-01T07:52:48.550Z,53.52
2023-05-01T07:53:48.859Z,54.13
2023-05-01T07:54:49.076Z,54.51
2023-05-01T07:55:49.322Z,54.31
2023-05-01T07:56:49.897Z,54.11
2023-05-01T07:57:49.910Z,54.21
2023-05-01T07:58:50.123Z,54.00
2023-05-01T07:59:50.344Z,54.31
2023-05-01T08:00:50.595Z,54.82
2023-05-01T08:01:50.856Z,54.41
2023-05-01T08:02:51.249Z,54.21
2023-05-01T08:03:51.619Z,53.90
2023-05-01T08:04:51.661Z,53.59
2023-05-01T08:05:51.792Z,53.90
2023-05-01T08:06:52.104Z,54.11
2023-05-01T08:07:52.372Z,54.31
2023-05-01T08:08:52.644Z,53.90
2023-05-01T08:09:52.945Z,54.28
2023-05-01T08:10:53.245Z,54.69
2023-05-01T08:11:53.552Z,54.28
2023-05-01T08:12:53.789Z,53.77
2023-05-01T08:13:54.096Z,53.27
2023-05-01T08:14:54.322Z,54.28
2023-05-01T08:15:54.647Z,54.39
2023-05-01T08:16:54.910Z,54.87
2023-05-01T08:17:55.236Z,54.87
2023-05-01T08:18:55.499Z,54.05
2023-05-01T08:19:55.977Z,53.96
2023-05-01T08:20:55.970Z,54.16
2023-05-01T08:21:56.226Z,54.77
2023-05-01T08:22:56.476Z,54.24
2023-05-01T08:23:56.781Z,53.92
2023-05-01T08:24:57.046Z,53.83
2023-05-01T08:25:57.342Z,53.62
2023-05-01T08:26:57.669Z,53.31
2023-05-01T08:27:57.942Z,53.52
2023-05-01T08:28:58.256Z,53.52
2023-05-01T08:29:58.728Z,53.52
2023-05-01T08:30:58.787Z,54.13
2023-05-01T08:31:59.071Z,53.62
2023-05-01T08:32:59.356Z,54.00
2023-05-01T08:33:59.653Z,52.88
2023-05-01T08:34:59.914Z,52.78
2023-05-01T08:36:00.201Z,52.98
2023-05-01T08:37:00.421Z,53.29
2023-05-01T08:38:00.689Z,53.47
2023-05-01T08:39:01.023Z,52.55
2023-05-01T08:40:01.198Z,52.25
2023-05-01T08:41:01.453Z,52.04
2023-05-01T08:42:01.698Z,52.15
2023-05-01T08:43:01.956Z,53.88
2023-05-01T08:44:02.253Z,52.86
2023-05-01T08:45:02.521Z,52.73
2023-05-01T08:46:02.775Z,52.33
2023-05-01T08:47:03.154Z,53.55
2023-05-01T08:48:03.354Z,52.43
2023-05-01T08:49:03.798Z,52.71
2023-05-01T08:50:03.865Z,51.28
2023-05-01T08:51:04.153Z,51.28
2023-05-01T08:52:04.408Z,51.39
2023-05-01T08:53:04.659Z,50.87
2023-05-01T08:54:04.943Z,50.57
2023-05-01T08:55:05.189Z,50.26
2023-05-01T08:56:05.462Z,50.78
2023-05-01T08:57:05.935Z,50.67
2023-05-01T08:58:06.014Z,50.87
2023-05-01T08:59:06.296Z,51.08
2023-05-01T09:00:06.553Z,51.28
2023-05-01T09:01:06.868Z,51.67
2023-05-01T09:02:07.197Z,51.06
2023-05-01T09:03:07.483Z,50.34
2023-05-01T09:04:07.724Z,50.14
2023-05-01T09:05:07.854Z,50.45
2023-05-01T09:06:08.111Z,51.46
2023-05-01T09:07:08.351Z,50.95
2023-05-01T09:08:08.602Z,51.16
2023-05-01T09:09:08.909Z,51.26
2023-05-01T09:10:09.206Z,50.85
2023-05-01T09:11:09.488Z,51.67
2023-05-01T09:12:09.757Z,50.55
2023-05-01T09:13:10.047Z,50.42
2023-05-01T09:14:10.338Z,49.91
2023-05-01T09:15:10.608Z,50.73
2023-05-01T09:16:10.969Z,50.52
2023-05-01T09:17:11.102Z,50.52
2023-05-01T09:18:11.409Z,49.91
2023-05-01T09:19:11.804Z,50.52
2023-05-01T09:20:11.943Z,50.09
2023-05-01T09:21:12.169Z,49.79
2023-05-01T09:22:12.508Z,50.20
2023-05-01T09:23:12.771Z,49.99
2023-05-01T09:24:13.057Z,49.79
2023-05-01T09:25:13.310Z,49.79
2023-05-01T09:27:10.310Z,49.36
2023-05-01T09:28:10.466Z,49.66
2023-05-01T09:29:10.678Z,48.65
2023-05-01T09:30:10.940Z,49.36
2023-05-01T09:31:11.170Z,48.95
2023-05-01T09:32:11.577Z,49.26
2023-05-01T09:33:11.964Z,49.36
2023-05-01T09:34:12.052Z,49.46
2023-05-01T09:35:12.287Z,49.26
2023-05-01T09:36:12.506Z,49.13
2023-05-01T09:37:12.853Z,48.83
2023-05-01T09:38:13.079Z,47.00
2023-05-01T09:39:13.329Z,46.39
2023-05-01T09:40:13.568Z,46.59
2023-05-01T09:41:13.803Z,46.70
2023-05-01T09:42:14.158Z,47.51
2023-05-01T09:43:14.386Z,46.78
2023-05-01T09:44:14.628Z,46.88
2023-05-01T09:45:14.888Z,47.28
2023-05-01T09:46:15.236Z,46.47
2023-05-01T09:47:15.326Z,47.08
2023-05-01T09:48:15.708Z,46.88
2023-05-01T09:49:16.045Z,45.66
2023-05-01T09:50:16.277Z,44.74
2023-05-01T09:51:16.537Z,44.44
2023-05-01T09:52:16.749Z,45.36
2023-05-01T09:53:16.987Z,45.25
2023-05-01T09:54:17.325Z,46.37
2023-05-01T09:55:17.557Z,46.67
2023-05-01T09:56:17.912Z,46.17
2023-05-01T09:57:18.248Z,44.65
2023-05-01T09:58:18.466Z,44.44
2023-05-01T09:59:18.826Z,43.43
2023-05-01T10:00:19.049Z,43.71
2023-05-01T10:01:19.508Z,44.82
2023-05-01T10:02:19.704Z,45.64
2023-05-01T10:03:20.066Z,46.04
2023-05-01T10:04:20.278Z,45.54
2023-05-01T10:05:20.555Z,43.71
2023-05-01T10:06:20.781Z,44.22
2023-05-01T10:07:21.009Z,44.73
2023-05-01T10:08:21.236Z,44.12
2023-05-01T10:09:21.525Z,43.61
2023-05-01T10:10:21.733Z,43.51
2023-05-01T10:11:21.988Z,43.61
2023-05-01T10:12:22.330Z,43.30
2023-05-01T10:13:22.553Z,43.61
2023-05-01T10:14:22.814Z,44.32
2023-05-01T10:15:26.796Z,44.42
2023-05-01T10:16:23.401Z,43.99
2023-05-01T10:17:23.722Z,43.51
2023-05-01T10:18:23.970Z,43.71
2023-05-01T10:19:24.220Z,43.81
2023-05-01T10:20:24.458Z,43.00
2023-05-01T10:21:24.681Z,41.88
2023-05-01T10:22:24.951Z,42.19
2023-05-01T10:23:25.209Z,42.90
2023-05-01T10:24:25.402Z,42.60
2023-05-01T10:25:25.643Z,42.09
2023-05-01T10:26:25.858Z,42.49
2023-05-01T10:27:26.093Z,43.00
2023-05-01T10:28:26.315Z,42.60
2023-05-01T10:29:26.589Z,43.51
2023-05-01T10:30:26.827Z,44.22
2023-05-01T10:31:27.215Z,44.30
2023-05-01T10:32:27.360Z,44.20
2023-05-01T10:33:27.573Z,43.49
2023-05-01T10:34:28.406Z,42.90
2023-05-01T10:35:28.142Z,43.81
2023-05-01T10:36:28.485Z,43.71
2023-05-01T10:37:28.726Z,43.81
2023-05-01T10:38:28.970Z,43.10
2023-05-01T10:39:29.224Z,42.90
2023-05-01T10:40:29.461Z,42.49
2023-05-01T10:41:29.718Z,44.32
2023-05-01T10:42:29.952Z,45.31
2023-05-01T10:43:30.173Z,43.99
2023-05-01T10:44:30.437Z,43.49
2023-05-01T10:45:30.688Z,43.79
2023-05-01T10:46:31.001Z,43.99
2023-05-01T10:47:31.243Z,42.98
2023-05-01T10:48:31.446Z,43.38
2023-05-01T10:49:31.857Z,44.40
2023-05-01T10:50:32.309Z,43.99
2023-05-01T10:51:32.450Z,45.11
2023-05-01T10:52:32.672Z,44.10
2023-05-01T10:53:33.037Z,44.81
2023-05-01T10:54:33.369Z,43.99
2023-05-01T10:55:33.571Z,43.49
2023-05-01T10:56:33.793Z,43.18
2023-05-01T10:57:34.006Z,43.08
2023-05-01T10:58:34.362Z,44.40
2023-05-01T10:59:34.628Z,45.11
2023-05-01T11:00:34.871Z,43.49
2023-05-01T11:01:35.147Z,42.98
2023-05-01T11:02:35.368Z,44.40
2023-05-01T11:03:35.620Z,44.40
2023-05-01T11:04:35.903Z,43.99
2023-05-01T11:05:38.729Z,43.69
2023-05-01T11:06:36.593Z,42.88
2023-05-01T11:07:36.731Z,42.57
2023-05-01T11:08:36.972Z,42.37
2023-05-01T11:09:37.214Z,42.57
2023-05-01T11:10:37.464Z,43.49
2023-05-01T11:11:37.731Z,43.69
2023-05-01T11:12:37.968Z,44.10
2023-05-01T11:13:39.010Z,44.70
2023-05-01T11:14:38.577Z,45.11
2023-05-01T11:15:38.799Z,44.40
2023-05-01T11:16:39.122Z,45.19
2023-05-01T11:17:39.354Z,44.99
2023-05-01T11:18:39.710Z,45.29
2023-05-01T11:19:40.926Z,45.59
2023-05-01T11:20:40.227Z,46.71
2023-05-01T11:21:40.463Z,45.90
2023-05-01T11:22:40.742Z,46.30
2023-05-01T11:23:40.989Z,46.38
2023-05-01T11:24:41.219Z,46.28
2023-05-01T11:25:41.478Z,46.28
2023-05-01T11:26:41.695Z,45.78
2023-05-01T11:27:41.921Z,46.59
2023-05-01T11:28:42.159Z,45.87
2023-05-01T11:29:42.436Z,45.25
2023-05-01T11:30:42.661Z,45.35
2023-05-01T11:31:42.963Z,45.15
2023-05-01T11:32:43.163Z,46.06
2023-05-01T11:33:43.431Z,46.67
2023-05-01T11:34:43.663Z,45.96
2023-05-01T11:35:43.913Z,45.65
2023-05-01T11:36:44.155Z,46.67
2023-05-01T11:37:44.408Z,46.36
2023-05-01T11:38:44.643Z,44.64
2023-05-01T11:39:44.867Z,44.95
2023-05-01T11:40:45.204Z,46.26
2023-05-01T11:41:45.494Z,45.04
2023-05-01T11:42:45.699Z,44.95
2023-05-01T11:43:45.943Z,45.37
2023-05-01T11:44:46.171Z,46.59
2023-05-01T11:45:46.442Z,47.27
2023-05-01T11:46:46.646Z,46.36
2023-05-01T11:47:47.079Z,46.06
2023-05-01T11:48:47.395Z,45.75
2023-05-01T11:49:47.660Z,45.04
2023-05-01T11:50:47.929Z,45.55
2023-05-01T11:51:48.167Z,45.04
2023-05-01T11:52:48.397Z,45.45
2023-05-01T11:53:48.668Z,45.55
2023-05-01T11:54:48.908Z,46.36
2023-05-01T11:55:49.154Z,45.45
2023-05-01T11:56:49.413Z,45.35
2023-05-01T11:57:49.634Z,45.04
2023-05-01T11:58:49.874Z,45.15
2023-05-01T11:59:50.130Z,45.04
2023-05-01T12:00:50.351Z,44.52
2023-05-01T12:01:50.783Z,44.95
2023-05-01T12:02:51.071Z,45.45
2023-05-01T12:03:51.475Z,45.03
2023-05-01T12:04:51.700Z,44.64
2023-05-01T12:05:51.813Z,44.32
2023-05-01T12:06:52.154Z,44.52
2023-05-01T12:07:52.442Z,45.03
2023-05-01T12:08:52.690Z,43.93
2023-05-01T12:09:52.884Z,44.03
2023-05-01T12:10:53.138Z,44.64
2023-05-01T12:11:53.483Z,45.33
2023-05-01T12:12:53.754Z,45.23
2023-05-01T12:13:54.017Z,44.92
2023-05-01T12:14:54.224Z,45.03
2023-05-01T12:15:54.458Z,44.52
2023-05-01T12:16:55.412Z,44.62
2023-05-01T12:17:54.999Z,44.92
2023-05-01T12:18:55.213Z,45.83
2023-05-01T12:19:55.463Z,45.12
2023-05-01T12:20:55.714Z,44.72
2023-05-01T12:21:55.944Z,44.72
2023-05-01T12:22:56.209Z,44.12
2023-05-01T12:23:56.447Z,44.32
2023-05-01T12:24:56.842Z,44.29
2023-05-01T12:25:56.954Z,44.80
2023-05-01T12:26:57.163Z,44.27
2023-05-01T12:27:57.534Z,44.48
2023-05-01T12:28:57.829Z,44.68
2023-05-01T12:29:58.060Z,44.98
2023-05-01T12:30:58.360Z,45.16
2023-05-01T12:31:58.680Z,44.35
2023-05-01T12:32:58.928Z,44.64
2023-05-01T12:33:59.210Z,45.34
2023-05-01T12:34:59.774Z,45.04
2023-05-01T12:35:59.774Z,44.11
2023-05-01T12:37:00.038Z,44.21
2023-05-01T12:38:00.256Z,43.71
2023-05-01T12:39:00.592Z,42.49
2023-05-01T12:40:00.841Z,42.90
2023-05-01T12:41:01.050Z,43.51
2023-05-01T12:42:01.293Z,43.71
2023-05-01T12:43:01.516Z,42.70
2023-05-01T12:44:01.816Z,43.30
2023-05-01T12:45:02.058Z,43.51
2023-05-01T12:46:02.333Z,44.21
2023-05-01T12:47:02.594Z,43.83
2023-05-01T12:48:02.935Z,43.12
2023-05-01T12:49:03.179Z,43.32
2023-05-01T12:50:03.376Z,43.93
2023-05-01T12:51:03.718Z,43.52
2023-05-01T12:52:04.087Z,43.32
2023-05-01T12:53:04.316Z,43.12
2023-05-01T12:54:04.570Z,43.12
2023-05-01T12:55:04.805Z,42.61
2023-05-01T12:56:05.164Z,42.74
2023-05-01T12:57:05.409Z,43.65
2023-05-01T12:58:05.789Z,44.05